Cassadaga, New York
Current Conditions -  °F | °C
As of 4:53 PM on Thursday 23 Oct 2014 (Local Time) from KDKK Reporting Station
Clear Clear  
Wind Chill: 56°   Ceiling: Unl
Heat Index: 56°   Visibility: 10mi
Dew Point: 44°   Wind: 8mph
Humidity: 64%   Direction: 250°WSW
Pressure: 30.06"   Gusts: NA
Location:  42.34°N, 79.31°W
Report Text: KDKK 232053Z AUTO 25007KT 10SM CLR 13/07 A3006 RMK AO2 SLP182 T01330067 56014
Loading
Personal Weather Stations






























Interactive Weather Map
Tropical Storm Tracking
New forecast layout! Learn more

10-Day Weather Forecast

Advertisements
Track Severe Weather on mobile